createdAt,value
2018-03-26T00:00:15.517Z,41.50
2018-03-26T00:00:49.179Z,40.28
2018-03-26T00:01:22.863Z,44.55
2018-03-26T00:01:56.555Z,42.85
2018-03-26T00:02:30.233Z,39.20
2018-03-26T00:03:03.928Z,41.17
2018-03-26T00:03:37.647Z,45.08
2018-03-26T00:04:11.323Z,44.47
2018-03-26T00:04:44.997Z,42.08
2018-03-26T00:05:18.721Z,44.85
2018-03-26T00:05:52.411Z,43.85
2018-03-26T00:06:26.097Z,42.35
2018-03-26T00:06:59.771Z,45.33
2018-03-26T00:07:33.496Z,45.53
2018-03-26T00:08:06.835Z,40.35
2018-03-26T00:08:40.557Z,42.15
2018-03-26T00:09:14.245Z,41.37
2018-03-26T00:09:47.944Z,46.05
2018-03-26T00:10:21.615Z,43.80
2018-03-26T00:10:55.311Z,46.25
2018-03-26T00:11:28.998Z,46.50
2018-03-26T00:12:02.669Z,43.40
2018-03-26T00:12:36.354Z,45.80
2018-03-26T00:13:10.047Z,41.10
2018-03-26T00:13:43.769Z,44.33
2018-03-26T00:14:17.442Z,44.83
2018-03-26T00:14:51.155Z,45.55
2018-03-26T00:15:24.845Z,46.60
2018-03-26T00:15:58.544Z,42.60
2018-03-26T00:16:32.222Z,44.58
2018-03-26T00:17:05.565Z,42.55
2018-03-26T00:17:38.923Z,43.03
2018-03-26T00:18:13.365Z,42.38
2018-03-26T00:18:47.341Z,43.78
2018-03-26T00:19:21.038Z,46.80
2018-03-26T00:19:54.713Z,44.38
2018-03-26T00:20:29.162Z,45.58
2018-03-26T00:21:02.853Z,45.35
2018-03-26T00:21:36.749Z,43.08
2018-03-26T00:22:10.444Z,49.83
2018-03-26T00:22:44.130Z,45.40
2018-03-26T00:23:17.816Z,41.67
2018-03-26T00:23:51.535Z,46.13
2018-03-26T00:24:25.199Z,43.20
2018-03-26T00:24:58.895Z,45.47
2018-03-26T00:25:32.603Z,44.92
2018-03-26T00:26:06.475Z,45.28
2018-03-26T00:26:40.159Z,48.60
2018-03-26T00:27:13.923Z,47.92
2018-03-26T00:27:47.540Z,47.13
2018-03-26T00:28:21.258Z,49.80
2018-03-26T00:28:56.286Z,41.83
2018-03-26T00:29:29.976Z,47.03
2018-03-26T00:30:03.329Z,46.88
2018-03-26T00:30:37.012Z,49.00
2018-03-26T00:31:10.716Z,47.47
2018-03-26T00:31:44.396Z,46.60
2018-03-26T00:32:18.122Z,49.05
2018-03-26T00:32:51.807Z,46.63
2018-03-26T00:33:28.278Z,49.80
2018-03-26T00:34:02.751Z,49.97
2018-03-26T00:34:36.435Z,46.75
2018-03-26T00:35:10.112Z,48.97
2018-03-26T00:35:43.601Z,48.87
2018-03-26T00:36:17.288Z,46.35
2018-03-26T00:36:50.969Z,47.88
2018-03-26T00:37:24.643Z,48.13
2018-03-26T00:37:58.323Z,43.67
2018-03-26T00:38:32.000Z,50.20
2018-03-26T00:39:05.797Z,52.62
2018-03-26T00:39:40.236Z,53.58
2018-03-26T00:40:13.910Z,45.47
2018-03-26T00:40:47.591Z,47.15
2018-03-26T00:41:21.266Z,51.00
2018-03-26T00:41:55.725Z,50.95
2018-03-26T00:42:29.070Z,47.97
2018-03-26T00:43:02.746Z,51.58
2018-03-26T00:43:37.185Z,50.70
2018-03-26T00:44:11.269Z,51.75
2018-03-26T00:44:44.996Z,51.13
2018-03-26T00:45:18.959Z,48.28
2018-03-26T00:45:52.649Z,48.55
2018-03-26T00:46:26.429Z,50.42
2018-03-26T00:47:00.141Z,53.42
2018-03-26T00:47:34.016Z,51.00
2018-03-26T00:48:07.692Z,54.85
2018-03-26T00:48:41.389Z,52.03
2018-03-26T00:49:15.893Z,50.00
2018-03-26T00:49:50.343Z,47.58
2018-03-26T00:50:24.026Z,52.15
2018-03-26T00:50:57.711Z,47.95
2018-03-26T00:51:31.380Z,54.40
2018-03-26T00:52:05.830Z,54.63
2018-03-26T00:52:39.532Z,49.35
2018-03-26T00:53:12.646Z,54.05
2018-03-26T00:53:46.763Z,47.50
2018-03-26T00:54:20.473Z,50.83
2018-03-26T00:54:54.148Z,53.72
2018-03-26T00:55:27.873Z,51.95
2018-03-26T00:56:01.558Z,51.33
2018-03-26T00:56:35.242Z,52.50
2018-03-26T00:57:08.920Z,48.80
2018-03-26T00:57:42.601Z,53.00
2018-03-26T00:58:16.276Z,54.88
2018-03-26T00:58:50.182Z,50.95
2018-03-26T00:59:24.006Z,46.30
2018-03-26T00:59:57.688Z,55.90
2018-03-26T01:00:31.366Z,49.58
2018-03-26T01:01:04.494Z,50.10
2018-03-26T01:01:38.172Z,54.30
2018-03-26T01:02:11.839Z,55.50
2018-03-26T01:02:45.575Z,51.47
2018-03-26T01:03:19.256Z,58.10
2018-03-26T01:03:52.986Z,52.38
2018-03-26T01:04:26.694Z,49.63
2018-03-26T01:05:00.395Z,51.80
2018-03-26T01:05:34.104Z,55.05
2018-03-26T01:06:07.460Z,57.13
2018-03-26T01:06:41.146Z,50.75
2018-03-26T01:07:14.806Z,53.53
2018-03-26T01:07:48.520Z,50.70
2018-03-26T01:08:22.212Z,51.97
2018-03-26T01:08:55.567Z,49.10
2018-03-26T01:09:29.561Z,51.20
2018-03-26T01:10:03.246Z,51.95
2018-03-26T01:10:37.691Z,55.97
2018-03-26T01:11:11.359Z,53.97
2018-03-26T01:11:45.130Z,55.40
2018-03-26T01:12:19.559Z,52.60
2018-03-26T01:12:53.248Z,50.53
2018-03-26T01:13:26.921Z,54.67
2018-03-26T01:14:01.363Z,51.03
2018-03-26T01:14:35.075Z,50.20
2018-03-26T01:15:08.958Z,53.85
2018-03-26T01:15:42.630Z,53.33
2018-03-26T01:16:16.373Z,53.95
2018-03-26T01:16:50.056Z,52.53
2018-03-26T01:17:23.562Z,52.88
2018-03-26T01:17:58.006Z,53.28
2018-03-26T01:18:31.764Z,51.63
2018-03-26T01:19:06.208Z,54.55
2018-03-26T01:19:40.027Z,46.15
2018-03-26T01:20:13.708Z,54.50
2018-03-26T01:20:47.388Z,51.33
2018-03-26T01:21:21.110Z,52.92
2018-03-26T01:21:54.781Z,56.60
2018-03-26T01:22:28.483Z,49.92
2018-03-26T01:23:02.159Z,52.55
2018-03-26T01:23:35.830Z,51.67
2018-03-26T01:24:09.528Z,49.95
2018-03-26T01:24:43.230Z,54.75
2018-03-26T01:25:16.900Z,51.37
2018-03-26T01:25:50.584Z,53.22
2018-03-26T01:26:24.273Z,51.55
2018-03-26T01:26:57.934Z,51.65
2018-03-26T01:27:32.386Z,53.03
2018-03-26T01:28:06.072Z,57.47
2018-03-26T01:28:39.735Z,56.37
2018-03-26T01:29:13.425Z,52.33
2018-03-26T01:29:47.140Z,54.80
2018-03-26T01:30:20.822Z,56.13
2018-03-26T01:30:54.488Z,50.35
2018-03-26T01:31:29.028Z,54.00
2018-03-26T01:32:02.718Z,51.67
2018-03-26T01:32:36.394Z,53.92
2018-03-26T01:33:10.068Z,53.50
2018-03-26T01:33:43.770Z,54.17
2018-03-26T01:34:17.448Z,56.60
2018-03-26T01:34:51.162Z,52.88
2018-03-26T01:35:24.830Z,52.78
2018-03-26T01:35:58.527Z,52.30
2018-03-26T01:36:32.384Z,54.60
2018-03-26T01:37:06.069Z,55.65
2018-03-26T01:37:39.758Z,53.22
2018-03-26T01:38:13.440Z,51.85
2018-03-26T01:38:46.788Z,51.83
2018-03-26T01:39:20.460Z,54.65
2018-03-26T01:39:54.229Z,52.42
2018-03-26T01:40:28.770Z,52.80
2018-03-26T01:41:04.944Z,50.85
2018-03-26T01:41:38.904Z,50.25
2018-03-26T01:42:12.570Z,49.40
2018-03-26T01:42:47.018Z,54.40
2018-03-26T01:43:21.195Z,49.53
2018-03-26T01:43:54.876Z,54.33
2018-03-26T01:44:29.664Z,51.00
2018-03-26T01:45:03.270Z,52.55
2018-03-26T01:45:37.714Z,54.63
2018-03-26T01:46:11.382Z,51.37
2018-03-26T01:46:46.096Z,57.45
2018-03-26T01:47:20.536Z,52.62
2018-03-26T01:47:54.216Z,52.72
2018-03-26T01:48:27.890Z,52.17
2018-03-26T01:49:01.570Z,49.17
2018-03-26T01:49:36.002Z,52.30
2018-03-26T01:50:09.773Z,61.47
2018-03-26T01:50:44.421Z,55.90
2018-03-26T01:51:18.636Z,60.80
2018-03-26T01:51:52.336Z,52.78
2018-03-26T01:52:25.994Z,51.80
2018-03-26T01:52:59.482Z,54.75
2018-03-26T01:53:33.142Z,59.70
2018-03-26T01:54:06.826Z,53.00
2018-03-26T01:54:41.266Z,53.00
2018-03-26T01:55:14.994Z,52.60
2018-03-26T01:55:48.696Z,51.80
2018-03-26T01:56:22.372Z,60.22
2018-03-26T01:56:56.034Z,55.70
2018-03-26T01:57:29.708Z,59.67
2018-03-26T01:58:03.384Z,58.87
2018-03-26T01:58:37.073Z,58.72
2018-03-26T01:59:10.754Z,60.30
2018-03-26T01:59:45.203Z,58.85
2018-03-26T02:00:18.911Z,57.75
2018-03-26T02:00:52.594Z,55.50
2018-03-26T02:01:26.272Z,57.35
2018-03-26T02:01:59.966Z,59.20
2018-03-26T02:02:33.674Z,52.47
2018-03-26T02:03:07.346Z,57.42
2018-03-26T02:03:41.020Z,54.22
2018-03-26T02:04:14.698Z,60.38
2018-03-26T02:04:48.547Z,56.50
2018-03-26T02:05:22.263Z,59.10
2018-03-26T02:05:56.716Z,57.85
2018-03-26T02:06:30.508Z,58.63
2018-03-26T02:07:04.204Z,59.00
2018-03-26T02:07:37.872Z,58.55
2018-03-26T02:08:10.884Z,56.03
2018-03-26T02:08:45.361Z,63.80
2018-03-26T02:09:19.044Z,58.97
2018-03-26T02:09:52.713Z,58.83
2018-03-26T02:10:26.439Z,61.13
2018-03-26T02:11:00.115Z,59.92
2018-03-26T02:11:33.455Z,55.05
2018-03-26T02:12:07.899Z,59.13
2018-03-26T02:12:41.584Z,63.70
2018-03-26T02:13:15.259Z,57.38
2018-03-26T02:13:49.013Z,61.47
2018-03-26T02:14:22.688Z,58.33
2018-03-26T02:14:56.180Z,62.85
2018-03-26T02:15:29.871Z,59.45
2018-03-26T02:16:03.549Z,59.65
2018-03-26T02:16:37.228Z,60.40
2018-03-26T02:17:10.906Z,62.92
2018-03-26T02:17:46.111Z,60.58
2018-03-26T02:18:19.806Z,57.00
2018-03-26T02:18:53.492Z,57.50
2018-03-26T02:19:27.185Z,59.63
2018-03-26T02:20:00.884Z,64.35
2018-03-26T02:20:34.586Z,62.20
2018-03-26T02:21:08.263Z,60.00
2018-03-26T02:21:41.945Z,57.28
2018-03-26T02:22:15.623Z,58.00
2018-03-26T02:22:49.459Z,58.90
2018-03-26T02:23:23.143Z,62.75
2018-03-26T02:23:56.816Z,59.05
2018-03-26T02:24:30.495Z,65.05
2018-03-26T02:25:03.522Z,59.40
2018-03-26T02:25:37.222Z,57.90
2018-03-26T02:26:10.905Z,61.88
2018-03-26T02:26:44.599Z,67.72
2018-03-26T02:27:18.462Z,60.80
2018-03-26T02:27:52.143Z,59.50
2018-03-26T02:28:25.819Z,65.15
2018-03-26T02:28:59.510Z,62.15
2018-03-26T02:29:33.187Z,58.75
2018-03-26T02:30:06.198Z,60.17
2018-03-26T02:30:39.893Z,60.30
2018-03-26T02:31:13.593Z,63.85
2018-03-26T02:31:47.270Z,62.08
2018-03-26T02:32:20.970Z,57.22
2018-03-26T02:32:54.647Z,65.10
2018-03-26T02:33:28.325Z,56.63
2018-03-26T02:34:02.008Z,60.58
2018-03-26T02:34:35.688Z,60.70
2018-03-26T02:35:09.471Z,63.85
2018-03-26T02:35:43.187Z,62.60
2018-03-26T02:36:16.869Z,63.08
2018-03-26T02:36:50.552Z,59.55
2018-03-26T02:37:24.243Z,62.03
2018-03-26T02:37:57.927Z,60.08
2018-03-26T02:38:31.622Z,64.03
2018-03-26T02:39:04.651Z,64.72
2018-03-26T02:39:38.311Z,59.30
2018-03-26T02:40:11.994Z,57.50
2018-03-26T02:40:45.704Z,67.62
2018-03-26T02:41:19.387Z,62.10
2018-03-26T02:41:52.738Z,63.63
2018-03-26T02:42:26.407Z,56.17
2018-03-26T02:43:01.058Z,62.13
2018-03-26T02:43:34.747Z,62.00
2018-03-26T02:44:08.093Z,61.92
2018-03-26T02:44:41.763Z,60.00
2018-03-26T02:45:16.216Z,62.47
2018-03-26T02:45:49.922Z,64.37
2018-03-26T02:46:23.633Z,67.57
2018-03-26T02:46:57.311Z,61.65
2018-03-26T02:47:31.001Z,61.95
2018-03-26T02:48:04.354Z,61.37
2018-03-26T02:48:38.041Z,64.70
2018-03-26T02:49:12.155Z,60.83
2018-03-26T02:49:45.836Z,64.05
2018-03-26T02:50:19.512Z,62.22
2018-03-26T02:50:53.411Z,67.35
2018-03-26T02:51:27.085Z,58.47
2018-03-26T02:52:00.766Z,64.47
2018-03-26T02:52:34.455Z,64.25
2018-03-26T02:53:08.951Z,66.00
2018-03-26T02:53:43.391Z,67.40
2018-03-26T02:54:17.070Z,58.50
2018-03-26T02:54:50.744Z,65.28
2018-03-26T02:55:25.207Z,64.90
2018-03-26T02:55:58.917Z,65.32
2018-03-26T02:56:32.603Z,66.65
2018-03-26T02:57:06.285Z,61.35
2018-03-26T02:57:39.960Z,67.32
2018-03-26T02:58:13.648Z,63.35
2018-03-26T02:58:47.319Z,65.18
2018-03-26T02:59:21.010Z,69.97
2018-03-26T02:59:54.700Z,63.75
2018-03-26T03:00:28.387Z,69.93
2018-03-26T03:01:02.109Z,77.60
2018-03-26T03:01:35.468Z,63.92
2018-03-26T03:02:09.175Z,65.93
2018-03-26T03:02:42.885Z,68.35
2018-03-26T03:03:20.054Z,63.45
2018-03-26T03:03:53.740Z,64.07
2018-03-26T03:04:27.436Z,66.35
2018-03-26T03:05:01.124Z,71.18
2018-03-26T03:05:34.817Z,66.87
2018-03-26T03:06:08.908Z,62.92
2018-03-26T03:06:42.593Z,69.37
2018-03-26T03:07:16.275Z,69.05
2018-03-26T03:07:49.964Z,69.37
2018-03-26T03:08:23.651Z,66.87
2018-03-26T03:08:57.345Z,65.35
2018-03-26T03:09:31.039Z,63.10
2018-03-26T03:10:04.063Z,63.80
2018-03-26T03:10:38.519Z,67.28
2018-03-26T03:11:12.776Z,64.20
2018-03-26T03:11:46.467Z,66.93
2018-03-26T03:12:20.143Z,67.85
2018-03-26T03:12:54.599Z,65.43
2018-03-26T03:13:28.275Z,61.05
2018-03-26T03:14:01.965Z,67.35
2018-03-26T03:14:35.657Z,69.32
2018-03-26T03:15:09.546Z,66.60
2018-03-26T03:15:43.238Z,71.10
2018-03-26T03:16:16.951Z,69.60
2018-03-26T03:16:50.627Z,61.70
2018-03-26T03:17:24.305Z,64.25
2018-03-26T03:17:57.996Z,68.57
2018-03-26T03:18:31.658Z,65.35
2018-03-26T03:19:06.105Z,64.12
2018-03-26T03:19:39.791Z,63.03
2018-03-26T03:20:13.471Z,62.50
2018-03-26T03:20:47.165Z,65.60
2018-03-26T03:21:20.889Z,67.95
2018-03-26T03:21:54.577Z,65.80
2018-03-26T03:22:28.261Z,65.97
2018-03-26T03:23:01.939Z,61.67
2018-03-26T03:23:35.644Z,66.15
2018-03-26T03:24:09.345Z,61.05
2018-03-26T03:24:43.047Z,63.42
2018-03-26T03:25:16.718Z,63.35
2018-03-26T03:25:50.413Z,65.32
2018-03-26T03:26:24.139Z,67.05
2018-03-26T03:26:58.579Z,64.05
2018-03-26T03:27:32.253Z,67.72
2018-03-26T03:28:05.933Z,67.10
2018-03-26T03:28:39.611Z,72.87
2018-03-26T03:29:14.065Z,62.47
2018-03-26T03:29:47.748Z,68.20
2018-03-26T03:30:21.433Z,70.25
2018-03-26T03:30:55.109Z,68.53
2018-03-26T03:31:28.800Z,59.42
2018-03-26T03:32:02.494Z,62.72
2018-03-26T03:32:36.183Z,67.93
2018-03-26T03:33:09.947Z,63.35
2018-03-26T03:33:44.393Z,69.90
2018-03-26T03:34:18.067Z,62.03
2018-03-26T03:34:51.743Z,63.85
2018-03-26T03:35:26.211Z,65.72
2018-03-26T03:35:59.899Z,66.55
2018-03-26T03:36:33.658Z,59.00
2018-03-26T03:37:07.483Z,64.12
2018-03-26T03:37:41.167Z,60.53
2018-03-26T03:38:14.858Z,62.45
2018-03-26T03:38:48.543Z,65.43
2018-03-26T03:39:22.262Z,67.00
2018-03-26T03:39:55.950Z,64.47
2018-03-26T03:41:17.953Z,62.45
2018-03-26T03:41:51.791Z,65.50
2018-03-26T03:42:26.236Z,62.72
2018-03-26T03:42:59.923Z,65.25
2018-03-26T03:43:33.620Z,72.12
2018-03-26T03:44:07.320Z,69.70
2018-03-26T03:44:40.999Z,58.72
2018-03-26T03:45:14.688Z,69.15
2018-03-26T03:45:48.364Z,67.37
2018-03-26T03:46:22.035Z,65.95
2018-03-26T03:46:55.999Z,68.90
2018-03-26T03:47:29.698Z,65.85
2018-03-26T03:48:04.151Z,68.37
2018-03-26T03:48:37.824Z,67.32
2018-03-26T03:49:12.231Z,69.18
2018-03-26T03:49:45.923Z,68.43
2018-03-26T03:50:19.615Z,66.07
2018-03-26T03:50:53.305Z,69.70
2018-03-26T03:51:27.181Z,66.15
2018-03-26T03:52:01.224Z,70.78
2018-03-26T03:52:34.915Z,63.75
2018-03-26T03:53:08.629Z,61.13
2018-03-26T03:53:42.311Z,66.87
2018-03-26T03:54:16.009Z,72.45
2018-03-26T03:54:49.620Z,70.57
2018-03-26T03:55:24.061Z,69.47
2018-03-26T03:55:57.765Z,71.50
2018-03-26T03:56:31.467Z,67.53
2018-03-26T03:57:04.659Z,66.60
2018-03-26T03:57:38.367Z,71.70
2018-03-26T03:58:12.825Z,71.65
2018-03-26T03:58:46.511Z,69.22
2018-03-26T03:59:20.191Z,73.20
2018-03-26T03:59:53.869Z,66.43
2018-03-26T04:00:27.539Z,74.40
2018-03-26T04:01:01.993Z,69.60
2018-03-26T04:01:35.680Z,69.05
2018-03-26T04:02:09.074Z,71.57
2018-03-26T04:02:42.767Z,71.07
2018-03-26T04:03:16.439Z,72.12
2018-03-26T04:03:50.203Z,72.82
2018-03-26T04:04:24.643Z,71.60
2018-03-26T04:04:58.347Z,76.15
2018-03-26T04:05:32.099Z,71.10
2018-03-26T04:06:06.547Z,75.45
2018-03-26T04:06:40.241Z,74.47
2018-03-26T04:07:14.155Z,69.03
2018-03-26T04:07:47.837Z,75.43
2018-03-26T04:08:21.509Z,78.87
2018-03-26T04:08:55.189Z,76.53
2018-03-26T04:09:28.851Z,72.28
2018-03-26T04:10:02.527Z,78.62
2018-03-26T04:10:36.965Z,72.22
2018-03-26T04:11:10.638Z,74.50
2018-03-26T04:11:44.312Z,73.12
2018-03-26T04:12:18.764Z,78.50
2018-03-26T04:12:52.458Z,75.55
2018-03-26T04:13:26.117Z,78.93
2018-03-26T04:13:59.805Z,75.00
2018-03-26T04:14:33.489Z,82.30
2018-03-26T04:15:06.987Z,80.53
2018-03-26T04:15:40.665Z,74.22
2018-03-26T04:16:15.119Z,78.30
2018-03-26T04:16:48.797Z,69.57
2018-03-26T04:17:22.492Z,80.47
2018-03-26T04:17:56.252Z,77.90
2018-03-26T04:18:30.084Z,82.88
2018-03-26T04:19:03.763Z,85.45
2018-03-26T04:19:37.457Z,80.72
2018-03-26T04:20:10.949Z,70.07
2018-03-26T04:20:44.629Z,74.60
2018-03-26T04:21:18.315Z,78.90
2018-03-26T04:21:51.665Z,80.80
2018-03-26T04:22:26.401Z,80.68
2018-03-26T04:23:00.072Z,82.78
2018-03-26T04:23:33.762Z,83.07
2018-03-26T04:24:07.448Z,84.57
2018-03-26T04:24:41.145Z,83.87
2018-03-26T04:25:14.832Z,76.43
2018-03-26T04:25:48.556Z,78.22
2018-03-26T04:26:22.373Z,84.75
2018-03-26T04:26:56.038Z,77.40
2018-03-26T04:27:29.759Z,79.43
2018-03-26T04:28:03.435Z,78.85
2018-03-26T04:28:37.111Z,80.25
2018-03-26T04:29:10.794Z,84.47
2018-03-26T04:29:44.461Z,83.25
2018-03-26T04:30:18.343Z,78.93
2018-03-26T04:30:52.028Z,82.60
2018-03-26T04:31:26.470Z,82.65
2018-03-26T04:32:00.186Z,80.15
2018-03-26T04:32:34.037Z,78.32
2018-03-26T04:33:07.713Z,83.20
2018-03-26T04:33:41.404Z,84.40
2018-03-26T04:34:15.095Z,80.90
2018-03-26T04:34:48.784Z,81.20
2018-03-26T04:35:22.488Z,81.22
2018-03-26T04:35:56.188Z,83.12
2018-03-26T04:36:29.882Z,87.72
2018-03-26T04:37:03.237Z,85.95
2018-03-26T04:37:36.959Z,82.30
2018-03-26T04:38:10.673Z,75.65
2018-03-26T04:38:44.347Z,78.57
2018-03-26T04:39:18.035Z,79.87
2018-03-26T04:39:51.720Z,81.63
2018-03-26T04:40:25.411Z,87.45
2018-03-26T04:40:59.107Z,84.82
2018-03-26T04:41:32.787Z,85.28
2018-03-26T04:42:05.808Z,83.95
2018-03-26T04:42:40.271Z,83.68
2018-03-26T04:43:13.972Z,84.25
2018-03-26T04:43:47.652Z,87.68
2018-03-26T04:44:21.327Z,95.72
2018-03-26T04:44:55.010Z,90.20
2018-03-26T04:45:28.684Z,96.87
2018-03-26T04:46:02.788Z,92.72
2018-03-26T04:46:36.472Z,93.47
2018-03-26T04:47:10.921Z,89.72
2018-03-26T04:47:44.639Z,86.72
2018-03-26T04:48:18.318Z,86.57
2018-03-26T04:48:51.993Z,94.45
2018-03-26T04:49:25.674Z,84.10
2018-03-26T04:49:59.363Z,91.47
2018-03-26T04:50:33.043Z,89.35
2018-03-26T04:51:06.385Z,99.15
2018-03-26T04:51:40.855Z,91.60
2018-03-26T04:52:14.539Z,93.00
2018-03-26T04:52:48.234Z,91.47
2018-03-26T04:53:21.917Z,87.72
2018-03-26T04:53:55.605Z,94.07
2018-03-26T04:54:29.291Z,93.75
2018-03-26T04:55:02.966Z,92.60
2018-03-26T04:55:36.639Z,92.57
2018-03-26T04:56:11.080Z,90.18
2018-03-26T04:56:44.763Z,94.03
2018-03-26T04:57:18.469Z,97.35
2018-03-26T04:57:52.171Z,95.80
2018-03-26T04:58:25.840Z,96.50
2018-03-26T04:58:59.529Z,102.90
2018-03-26T04:59:33.237Z,101.15
2018-03-26T05:00:06.916Z,101.70
2018-03-26T05:00:40.615Z,101.53
2018-03-26T05:01:14.307Z,100.05
2018-03-26T05:01:48.007Z,101.00
2018-03-26T05:02:21.696Z,100.30
2018-03-26T05:02:55.400Z,107.35
2018-03-26T05:03:34.561Z,99.80
2018-03-26T05:04:08.238Z,105.85
2018-03-26T05:04:41.918Z,98.35
2018-03-26T05:05:16.366Z,99.50
2018-03-26T05:05:50.042Z,103.15
2018-03-26T05:06:23.715Z,95.15
2018-03-26T05:06:57.388Z,98.60
2018-03-26T05:07:32.732Z,107.60
2018-03-26T05:08:06.262Z,104.00
2018-03-26T05:08:39.762Z,109.40
2018-03-26T05:09:13.453Z,104.43
2018-03-26T05:09:47.129Z,103.50
2018-03-26T05:10:20.807Z,105.32
2018-03-26T05:10:54.504Z,109.28
2018-03-26T05:11:28.016Z,109.47
2018-03-26T05:12:01.705Z,106.72
2018-03-26T05:12:35.386Z,106.22
2018-03-26T05:13:09.087Z,112.68
2018-03-26T05:13:42.789Z,116.60
2018-03-26T05:14:17.243Z,116.88
2018-03-26T05:14:51.301Z,118.53
2018-03-26T05:15:25.757Z,115.22
2018-03-26T05:15:59.452Z,116.28
2018-03-26T05:16:33.148Z,122.78
2018-03-26T05:17:06.843Z,114.65
2018-03-26T05:17:40.546Z,124.55
2018-03-26T05:18:14.264Z,125.57
2018-03-26T05:18:48.706Z,112.80
2018-03-26T05:19:22.400Z,122.60
2018-03-26T05:19:56.111Z,119.82
2018-03-26T05:20:29.827Z,115.40
2018-03-26T05:21:04.277Z,114.40
2018-03-26T05:21:37.966Z,114.10
2018-03-26T05:22:11.643Z,123.53
2018-03-26T05:22:45.342Z,123.97
2018-03-26T05:23:19.062Z,139.50
2018-03-26T05:23:52.748Z,127.05
2018-03-26T05:24:26.430Z,128.77
2018-03-26T05:25:00.134Z,134.12
2018-03-26T05:25:33.820Z,129.23
2018-03-26T05:26:07.514Z,132.57
2018-03-26T05:26:41.206Z,137.75
2018-03-26T05:27:14.889Z,143.00
2018-03-26T05:27:48.576Z,133.87
2018-03-26T05:28:22.283Z,143.40
2018-03-26T05:28:55.963Z,146.05
2018-03-26T05:29:29.651Z,145.80
2018-03-26T05:30:03.342Z,141.37
2018-03-26T05:30:37.022Z,140.07
2018-03-26T05:31:10.889Z,146.82
2018-03-26T05:31:44.738Z,153.38
2018-03-26T05:32:18.419Z,141.85
2018-03-26T05:32:52.093Z,157.68
2018-03-26T05:33:25.813Z,146.43
2018-03-26T05:33:59.487Z,158.70
2018-03-26T05:34:33.167Z,146.65
2018-03-26T05:35:06.870Z,173.00
2018-03-26T05:35:40.552Z,160.10
2018-03-26T05:36:14.235Z,152.27
2018-03-26T05:36:47.912Z,157.73
2018-03-26T05:37:21.592Z,154.85
2018-03-26T05:37:55.271Z,176.43
2018-03-26T05:38:28.966Z,169.70
2018-03-26T05:39:02.648Z,165.73
2018-03-26T05:39:36.343Z,162.82
2018-03-26T05:40:10.087Z,167.95
2018-03-26T05:40:43.771Z,158.82
2018-03-26T05:41:17.471Z,164.43
2018-03-26T05:41:51.159Z,162.50
2018-03-26T05:42:24.843Z,162.48
2018-03-26T05:42:58.528Z,169.77
2018-03-26T05:43:32.254Z,174.62
2018-03-26T05:44:05.604Z,163.93
2018-03-26T05:44:39.290Z,169.15
2018-03-26T05:45:12.978Z,173.75
2018-03-26T05:45:46.698Z,177.38
2018-03-26T05:46:21.142Z,167.07
2018-03-26T05:46:54.845Z,172.00
2018-03-26T05:47:28.538Z,177.98
2018-03-26T05:48:02.066Z,170.43
2018-03-26T05:48:35.769Z,180.87
2018-03-26T05:49:09.465Z,164.85
2018-03-26T05:49:43.157Z,178.18
2018-03-26T05:50:16.837Z,178.82
2018-03-26T05:50:54.210Z,167.52
2018-03-26T05:51:28.658Z,162.05
2018-03-26T05:52:02.341Z,176.45
2018-03-26T05:52:36.027Z,176.68
2018-03-26T05:53:09.706Z,183.65
2018-03-26T05:53:43.430Z,184.02
2018-03-26T05:54:17.121Z,168.02
2018-03-26T05:54:50.834Z,169.82
2018-03-26T05:55:24.183Z,174.32
2018-03-26T05:55:57.871Z,166.23
2018-03-26T05:56:31.562Z,171.98
2018-03-26T05:57:05.254Z,173.32
2018-03-26T05:57:38.939Z,166.12
2018-03-26T05:58:12.619Z,166.90
2018-03-26T05:58:46.332Z,175.60
2018-03-26T05:59:20.020Z,159.48
2018-03-26T05:59:53.713Z,152.75
2018-03-26T06:00:27.400Z,155.20
2018-03-26T06:01:01.093Z,166.27
2018-03-26T06:01:34.799Z,175.05
2018-03-26T06:02:08.493Z,161.32
2018-03-26T06:02:41.661Z,157.48
2018-03-26T06:03:15.162Z,171.93
2018-03-26T06:03:48.684Z,158.37
2018-03-26T06:04:22.591Z,161.95
2018-03-26T06:04:56.268Z,156.27
2018-03-26T06:05:29.964Z,169.73
2018-03-26T06:06:03.652Z,172.30
2018-03-26T06:06:37.364Z,165.32
2018-03-26T06:07:11.125Z,166.60
2018-03-26T06:07:44.810Z,184.65
2018-03-26T06:08:19.260Z,181.90
2018-03-26T06:08:52.973Z,170.02
2018-03-26T06:09:26.654Z,182.88
2018-03-26T06:10:00.390Z,173.43
2018-03-26T06:10:34.839Z,177.02
2018-03-26T06:11:08.529Z,178.43
2018-03-26T06:11:42.223Z,171.60
2018-03-26T06:12:15.915Z,156.40
2018-03-26T06:12:49.599Z,155.50
2018-03-26T06:13:23.286Z,179.95
2018-03-26T06:13:57.009Z,165.77
2018-03-26T06:14:30.760Z,172.95
2018-03-26T06:15:03.778Z,161.45
2018-03-26T06:15:37.459Z,162.48
2018-03-26T06:16:11.268Z,172.23
2018-03-26T06:16:56.994Z,172.27
2018-03-26T06:17:30.532Z,174.05
2018-03-26T06:18:04.471Z,151.95
2018-03-26T06:18:37.963Z,166.52
2018-03-26T06:19:11.464Z,152.93
2018-03-26T06:19:45.162Z,158.43
2018-03-26T06:20:18.333Z,168.80
2018-03-26T06:20:51.822Z,155.95
2018-03-26T06:21:25.320Z,163.73
2018-03-26T06:21:59.008Z,171.40
2018-03-26T06:22:32.680Z,160.73
2018-03-26T06:23:06.179Z,169.27
2018-03-26T06:23:39.690Z,165.50
2018-03-26T06:24:14.032Z,164.37
2018-03-26T06:24:47.693Z,155.80
2018-03-26T06:25:21.198Z,167.65
2018-03-26T06:25:54.707Z,176.90
2018-03-26T06:26:28.206Z,169.73
2018-03-26T06:27:01.712Z,162.40
2018-03-26T06:27:35.204Z,159.12
2018-03-26T06:28:09.459Z,151.32
2018-03-26T06:28:42.972Z,153.87
2018-03-26T06:29:16.484Z,152.18
2018-03-26T06:29:50.864Z,160.48
2018-03-26T06:30:24.376Z,167.68
2018-03-26T06:30:58.627Z,151.95
2018-03-26T06:31:32.136Z,158.52
2018-03-26T06:32:05.295Z,141.80
2018-03-26T06:32:38.779Z,152.70
2018-03-26T06:33:12.310Z,139.45
2018-03-26T06:33:46.577Z,140.27
2018-03-26T06:34:20.838Z,148.95
2018-03-26T06:34:54.361Z,131.23
2018-03-26T06:35:27.872Z,140.48
2018-03-26T06:36:01.374Z,138.12
2018-03-26T06:36:41.280Z,139.25
2018-03-26T06:37:29.700Z,143.05
2018-03-26T06:39:21.568Z,134.25
2018-03-26T06:39:56.018Z,135.88
2018-03-26T06:40:29.545Z,126.97
2018-03-26T06:41:03.041Z,118.97
2018-03-26T06:41:36.538Z,130.70
2018-03-26T06:42:11.014Z,128.93
2018-03-26T06:42:44.709Z,127.22
2018-03-26T06:43:18.208Z,132.05
2018-03-26T06:43:51.899Z,111.55
2018-03-26T06:44:25.601Z,120.00
2018-03-26T06:45:00.058Z,119.57
2018-03-26T06:45:33.744Z,110.90
2018-03-26T06:46:07.430Z,119.82
2018-03-26T06:46:41.172Z,115.07
2018-03-26T06:47:14.845Z,108.30
2018-03-26T06:47:48.693Z,107.40
2018-03-26T06:48:22.364Z,115.22
2018-03-26T06:48:56.062Z,116.05
2018-03-26T06:49:29.774Z,114.72
2018-03-26T06:50:03.467Z,109.07
2018-03-26T06:50:37.335Z,108.22
2018-03-26T06:51:11.076Z,105.63
2018-03-26T06:51:44.768Z,110.72
2018-03-26T06:52:18.455Z,102.15
2018-03-26T06:52:52.138Z,107.28
2018-03-26T06:53:25.831Z,115.90
2018-03-26T06:53:59.526Z,113.82
2018-03-26T06:54:33.233Z,107.75
2018-03-26T06:55:06.906Z,112.18
2018-03-26T06:55:40.590Z,114.95
2018-03-26T06:56:14.268Z,110.37
2018-03-26T06:56:48.020Z,114.70
2018-03-26T06:57:21.517Z,121.68
2018-03-26T06:57:55.192Z,107.12
2018-03-26T06:58:29.634Z,114.72
2018-03-26T06:59:03.318Z,111.40
2018-03-26T06:59:37.035Z,103.80
2018-03-26T07:00:10.758Z,105.50
2018-03-26T07:00:45.227Z,113.82
2018-03-26T07:01:18.906Z,103.53
2018-03-26T07:01:52.590Z,106.40
2018-03-26T07:02:26.284Z,96.85
2018-03-26T07:02:59.967Z,102.90
2018-03-26T07:03:33.653Z,104.85
2018-03-26T07:04:07.338Z,102.05
2018-03-26T07:04:41.049Z,103.72
2018-03-26T07:05:14.738Z,99.30
2018-03-26T07:05:49.202Z,105.82
2018-03-26T07:06:23.652Z,101.28
2018-03-26T07:06:57.342Z,95.90
2018-03-26T07:07:31.061Z,95.90
2018-03-26T07:08:05.540Z,94.82
2018-03-26T07:08:39.232Z,106.05
2018-03-26T07:09:12.974Z,99.07
2018-03-26T07:09:47.452Z,104.38
2018-03-26T07:10:21.127Z,94.10
2018-03-26T07:10:54.814Z,100.97
2018-03-26T07:11:28.502Z,95.40
2018-03-26T07:12:02.188Z,94.75
2018-03-26T07:12:35.878Z,100.85
2018-03-26T07:13:09.574Z,97.00
2018-03-26T07:13:43.269Z,95.60